Hauptseite
METAR-TAF:

METAR-TAF

Flughäfen :

Militärflugplatz Sarzana-Luni

Sarzana, Italien

Breite: 44-05N, Länge: 009-59E, Höhe: 9 m

Beobachtung

Neuester Wetterbericht von vor 14 Stunden und 29 Minuten, um 13:55 UTC
Windstille
Temperatur 25°C
Luftfeuchtigkeit 41%
Luftdruck 1016 hPa
Sichtweite 10 km oder mehr
Leicht bewölkt in der Höhe von 3000 ft

METAR: LIQW 151355Z 00000KT 9999 FEW030 25/11 Q1016 RMK SCT SCT200 VIS MIN 9999 WIND THR18 21004KT BLU

Zeit: 06:24 (04:24 UTC)


TAF: fehlend

Wetterbeobachtungen und Prognosen von mehr als 4000 Flughäfen (METAR und TAF Bericht).

Die verfügbaren Stationen werden durch gelbe und rote Markierungen auf der Karte dargestellt.

Führen Sie die Maus auf sie, um den Namen der Station zu sehen.

Darauf klicken, um die Beobachtung von Wetterbeobachtungen und Prognosen zu sehen.

Um die Karte zu ändern : klicken Sie auf den grünen Tasten mit einem schwarzen Kreuz Zum Vergrößern, auf den grünen Button mit einem Gedankenstrich zu verkleinern, oder auf die grünen Pfeile für benachbarte Karten.


METAR-TAF: